Time,TemperatureF,DewpointF,PressureIn,WindDirection,WindDirectionDegrees,WindSpeedMPH,WindSpeedGustMPH,Humidity,HourlyPrecipIn,Conditions,Clouds,dailyrainin,SoftwareType,DateUTC
2013-04-21 00:01:00,35.8,29.7,30.40,NNE,24,12.0,12.0,78,0.00,,,0.02,meteohub,2013-04-21 04:01:00,
2013-04-21 00:02:00,35.8,29.7,30.40,NNE,23,7.0,12.0,78,0.00,,,0.02,meteohub,2013-04-21 04:02:00,
2013-04-21 00:07:00,35.8,29.7,30.41,NNE,30,9.0,13.0,78,0.00,,,0.00,meteohub,2013-04-21 04:07:00,
2013-04-21 00:12:00,35.8,29.7,30.41,NNE,22,7.0,13.0,78,0.00,,,0.00,meteohub,2013-04-21 04:12:00,
2013-04-21 00:17:00,35.8,29.3,30.41,NNE,20,9.0,13.0,77,0.00,,,0.00,meteohub,2013-04-21 04:17:00,
2013-04-21 00:22:00,35.8,29.3,30.41,NNE,28,11.0,13.0,77,0.00,,,0.00,meteohub,2013-04-21 04:22:00,
2013-04-21 00:28:00,35.8,29.3,30.42,NNE,30,9.0,13.0,77,0.00,,,0.00,meteohub,2013-04-21 04:28:00,
2013-04-21 00:33:00,35.8,29.3,30.42,NNE,19,10.0,13.0,77,0.00,,,0.00,meteohub,2013-04-21 04:33:00,
2013-04-21 00:38:00,36.0,29.5,30.42,NE,41,11.0,13.0,77,0.00,,,0.00,meteohub,2013-04-21 04:38:00,
2013-04-21 00:43:00,35.8,28.6,30.43,North,5,9.0,13.0,75,0.00,,,0.00,meteohub,2013-04-21 04:43:00,
2013-04-21 00:48:00,35.8,28.4,30.43,NNE,16,11.0,12.0,74,0.00,,,0.00,meteohub,2013-04-21 04:48:00,
2013-04-21 00:53:00,35.8,28.9,30.43,North,5,9.0,14.0,76,0.00,,,0.00,meteohub,2013-04-21 04:53:00,
2013-04-21 00:58:00,35.8,29.3,30.43,NNE,16,10.0,14.0,77,0.00,,,0.00,meteohub,2013-04-21 04:58:00,
2013-04-21 01:03:00,35.4,28.9,30.43,NNE,21,10.0,14.0,77,0.00,,,0.00,meteohub,2013-04-21 05:03:00,
2013-04-21 01:08:00,35.4,29.8,30.43,NNE,28,7.0,14.0,80,0.00,,,0.00,meteohub,2013-04-21 05:08:00,
2013-04-21 01:13:00,35.6,29.5,30.44,NNE,21,11.0,14.0,78,0.00,,,0.00,meteohub,2013-04-21 05:13:00,
2013-04-21 01:18:00,35.4,28.9,30.44,NNE,22,11.0,13.0,77,0.00,,,0.00,meteohub,2013-04-21 05:18:00,
2013-04-21 01:23:00,35.4,28.9,30.44,NNE,32,9.0,13.0,77,0.00,,,0.00,meteohub,2013-04-21 05:23:00,
2013-04-21 01:28:00,35.4,29.3,30.44,NNE,25,10.0,14.0,78,0.00,,,0.00,meteohub,2013-04-21 05:28:00,
2013-04-21 01:34:00,35.4,29.5,30.44,NNE,19,11.0,14.0,79,0.00,,,0.00,meteohub,2013-04-21 05:34:00,
2013-04-21 01:39:00,35.4,28.9,30.44,NNE,17,6.0,14.0,77,0.00,,,0.00,meteohub,2013-04-21 05:39:00,
2013-04-21 01:44:00,35.4,28.9,30.44,NNE,17,11.0,14.0,77,0.00,,,0.00,meteohub,2013-04-21 05:44:00,
2013-04-21 01:49:00,35.2,27.9,30.45,NNE,26,6.0,13.0,74,0.00,,,0.00,meteohub,2013-04-21 05:49:00,
2013-04-21 01:54:00,35.2,28.0,30.45,North,355,11.0,12.0,75,0.00,,,0.00,meteohub,2013-04-21 05:54:00,
2013-04-21 01:59:00,35.4,28.0,30.45,North,5,9.0,12.0,74,0.00,,,0.00,meteohub,2013-04-21 05:59:00,
2013-04-21 02:04:00,35.2,27.1,30.45,North,9,12.0,12.0,72,0.00,,,0.00,meteohub,2013-04-21 06:04:00,
2013-04-21 02:09:00,35.2,27.9,30.45,North,11,12.0,15.0,74,0.00,,,0.00,meteohub,2013-04-21 06:09:00,
2013-04-21 02:14:00,35.1,27.7,30.45,NNE,32,10.0,15.0,74,0.00,,,0.00,meteohub,2013-04-21 06:14:00,
2013-04-21 02:19:00,35.1,27.9,30.45,NE,34,11.0,15.0,75,0.00,,,0.00,meteohub,2013-04-21 06:19:00,
2013-04-21 02:24:00,35.1,27.3,30.45,NNE,30,12.0,15.0,73,0.00,,,0.00,meteohub,2013-04-21 06:24:00,
2013-04-21 02:29:00,35.1,27.0,30.46,NNE,18,12.0,15.0,72,0.00,,,0.00,meteohub,2013-04-21 06:29:00,
2013-04-21 02:34:00,34.9,27.7,30.46,North,5,12.0,15.0,75,0.00,,,0.00,meteohub,2013-04-21 06:34:00,
2013-04-21 02:39:00,34.9,28.0,30.46,North,10,11.0,15.0,76,0.00,,,0.00,meteohub,2013-04-21 06:39:00,
2013-04-21 02:45:00,34.9,28.0,30.46,NNE,30,10.0,15.0,76,0.00,,,0.00,meteohub,2013-04-21 06:45:00,
2013-04-21 02:50:00,34.9,27.7,30.46,NNE,33,5.0,15.0,75,0.00,,,0.00,meteohub,2013-04-21 06:50:00,
2013-04-21 02:55:00,34.9,28.4,30.46,NNE,23,12.0,13.0,77,0.00,,,0.00,meteohub,2013-04-21 06:55:00,
2013-04-21 03:00:00,34.9,28.0,30.47,NE,47,10.0,13.0,76,0.00,,,0.00,meteohub,2013-04-21 07:00:00,
2013-04-21 03:05:00,34.9,27.1,30.47,NE,36,6.0,13.0,73,0.00,,,0.00,meteohub,2013-04-21 07:05:00,
2013-04-21 03:10:00,34.9,27.1,30.47,NNE,32,7.0,13.0,73,0.00,,,0.00,meteohub,2013-04-21 07:10:00,
2013-04-21 03:15:00,34.7,27.7,30.47,NNE,32,7.0,15.0,75,0.00,,,0.00,meteohub,2013-04-21 07:15:00,
2013-04-21 03:20:00,34.5,27.1,30.47,NNE,18,11.0,15.0,74,0.00,,,0.00,meteohub,2013-04-21 07:20:00,
2013-04-21 03:25:00,34.7,27.9,30.47,NNE,31,11.0,14.0,76,0.00,,,0.00,meteohub,2013-04-21 07:25:00,
2013-04-21 03:30:00,34.5,27.1,30.47,NNE,30,5.0,15.0,74,0.00,,,0.00,meteohub,2013-04-21 07:30:00,
2013-04-21 03:35:00,34.3,27.5,30.47,NNE,32,11.0,15.0,76,0.00,,,0.00,meteohub,2013-04-21 07:35:00,
2013-04-21 03:40:00,34.3,27.3,30.47,NE,42,10.0,15.0,75,0.00,,,0.00,meteohub,2013-04-21 07:40:00,
2013-04-21 03:45:00,34.3,27.0,30.48,NNE,22,13.0,13.0,74,0.00,,,0.00,meteohub,2013-04-21 07:45:00,
2013-04-21 03:51:00,34.3,26.6,30.48,North,5,12.0,15.0,73,0.00,,,0.00,meteohub,2013-04-21 07:51:00,
2013-04-21 03:56:00,34.3,26.2,30.48,NNE,32,7.0,15.0,72,0.00,,,0.00,meteohub,2013-04-21 07:56:00,
2013-04-21 04:01:00,34.3,27.5,30.48,NE,46,6.0,15.0,76,0.00,,,0.00,meteohub,2013-04-21 08:01:00,
2013-04-21 04:06:00,34.3,27.9,30.48,NE,44,10.0,14.0,77,0.00,,,0.00,meteohub,2013-04-21 08:06:00,
2013-04-21 04:11:00,34.3,28.6,30.48,NE,46,12.0,14.0,79,0.00,,,0.00,meteohub,2013-04-21 08:11:00,
2013-04-21 04:16:00,34.3,28.2,30.48,ENE,58,10.0,13.0,78,0.00,,,0.00,meteohub,2013-04-21 08:16:00,
2013-04-21 04:21:00,34.3,27.9,30.48,NE,45,10.0,13.0,77,0.00,,,0.00,meteohub,2013-04-21 08:21:00,
2013-04-21 04:26:00,34.3,28.2,30.48,NE,49,9.0,13.0,78,0.00,,,0.00,meteohub,2013-04-21 08:26:00,
2013-04-21 04:31:00,34.3,28.6,30.48,NE,37,11.0,13.0,79,0.00,,,0.00,meteohub,2013-04-21 08:31:00,
2013-04-21 04:36:00,34.3,28.2,30.48,NE,41,11.0,13.0,78,0.00,,,0.00,meteohub,2013-04-21 08:36:00,
2013-04-21 04:41:00,34.2,27.3,30.49,NE,46,10.0,13.0,76,0.00,,,0.00,meteohub,2013-04-21 08:41:00,
2013-04-21 04:46:00,34.3,28.2,30.49,NE,43,8.0,13.0,78,0.00,,,0.00,meteohub,2013-04-21 08:46:00,
2013-04-21 04:51:00,34.3,27.9,30.49,NE,54,11.0,13.0,77,0.00,,,0.00,meteohub,2013-04-21 08:51:00,
2013-04-21 04:56:00,34.2,27.7,30.49,ENE,57,7.0,11.0,77,0.00,,,0.00,meteohub,2013-04-21 08:56:00,
2013-04-21 05:01:00,34.0,27.1,30.49,NE,50,5.0,11.0,76,0.00,,,0.00,meteohub,2013-04-21 09:01:00,
2013-04-21 05:06:00,34.0,27.5,30.50,NE,34,10.0,11.0,77,0.00,,,0.00,meteohub,2013-04-21 09:06:00,
2013-04-21 05:11:00,34.0,27.1,30.50,NE,55,6.0,11.0,76,0.00,,,0.00,meteohub,2013-04-21 09:11:00,
2013-04-21 05:16:00,34.0,26.6,30.50,NE,36,9.0,11.0,74,0.00,,,0.00,meteohub,2013-04-21 09:16:00,
2013-04-21 05:22:00,34.0,26.6,30.50,NE,48,9.0,12.0,74,0.00,,,0.00,meteohub,2013-04-21 09:22:00,
2013-04-21 05:27:00,34.2,27.3,30.51,NNE,21,11.0,13.0,76,0.00,,,0.00,meteohub,2013-04-21 09:27:00,
2013-04-21 05:32:00,34.0,27.0,30.51,NE,47,7.0,13.0,75,0.00,,,0.00,meteohub,2013-04-21 09:32:00,
2013-04-21 05:37:00,34.0,27.1,30.51,NE,36,9.0,13.0,76,0.00,,,0.00,meteohub,2013-04-21 09:37:00,
2013-04-21 05:42:00,33.8,26.8,30.51,NE,36,8.0,13.0,75,0.00,,,0.00,meteohub,2013-04-21 09:42:00,
2013-04-21 05:47:00,33.8,26.8,30.51,NE,34,10.0,13.0,75,0.00,,,0.00,meteohub,2013-04-21 09:47:00,
2013-04-21 05:52:00,34.0,27.1,30.51,NE,51,6.0,13.0,76,0.00,,,0.00,meteohub,2013-04-21 09:52:00,
2013-04-21 05:57:00,33.6,26.8,30.51,NE,55,6.0,13.0,76,0.00,,,0.00,meteohub,2013-04-21 09:57:00,
2013-04-21 06:02:00,33.8,26.8,30.52,NE,54,4.0,11.0,75,0.00,,,0.00,meteohub,2013-04-21 10:02:00,
2013-04-21 06:07:00,33.8,27.3,30.52,NE,41,6.0,10.0,77,0.00,,,0.00,meteohub,2013-04-21 10:07:00,
2013-04-21 06:12:00,33.6,26.8,30.52,NE,46,7.0,12.0,76,0.00,,,0.00,meteohub,2013-04-21 10:12:00,
2013-04-21 06:17:00,33.8,29.8,30.53,NE,54,10.0,12.0,85,0.00,,,0.00,meteohub,2013-04-21 10:17:00,
2013-04-21 06:22:00,33.6,27.5,30.53,NE,43,8.0,12.0,78,0.00,,,0.00,meteohub,2013-04-21 10:22:00,
2013-04-21 06:27:00,33.8,27.7,30.53,ENE,63,6.0,12.0,78,0.00,,,0.00,meteohub,2013-04-21 10:27:00,
2013-04-21 06:32:00,33.6,27.1,30.54,ENE,59,7.0,12.0,77,0.00,,,0.00,meteohub,2013-04-21 10:32:00,
2013-04-21 06:37:00,33.1,27.3,30.54,ENE,65,5.0,11.0,79,0.00,,,0.00,meteohub,2013-04-21 10:37:00,
2013-04-21 06:42:00,33.4,27.7,30.55,ENE,69,2.0,11.0,79,0.00,,,0.00,meteohub,2013-04-21 10:42:00,
2013-04-21 06:47:00,32.5,26.8,30.55,SSE,151,2.0,8.0,79,0.00,,,0.00,meteohub,2013-04-21 10:47:00,
2013-04-21 06:52:00,31.8,27.0,30.55,SSE,150,1.0,8.0,82,0.00,,,0.00,meteohub,2013-04-21 10:52:00,
2013-04-21 06:57:00,32.4,27.5,30.55,SSE,150,1.0,3.0,82,0.00,,,0.00,meteohub,2013-04-21 10:57:00,
2013-04-21 07:02:00,32.5,27.3,30.56,SSE,150,0.0,2.0,81,0.00,,,0.00,meteohub,2013-04-21 11:02:00,
2013-04-21 07:07:00,32.7,27.3,30.56,SSE,150,1.0,2.0,80,0.00,,,0.00,meteohub,2013-04-21 11:07:00,
2013-04-21 07:12:00,32.7,27.3,30.56,SE,146,2.0,2.0,80,0.00,,,0.00,meteohub,2013-04-21 11:12:00,
2013-04-21 07:17:00,33.1,27.5,30.56,ESE,110,2.0,4.0,80,0.00,,,0.00,meteohub,2013-04-21 11:17:00,
2013-04-21 07:22:00,33.3,27.7,30.56,ESE,113,2.0,5.0,80,0.00,,,0.00,meteohub,2013-04-21 11:22:00,
2013-04-21 07:27:00,33.3,27.5,30.57,ESE,116,2.0,5.0,79,0.00,,,0.00,meteohub,2013-04-21 11:27:00,
2013-04-21 07:32:00,33.4,27.7,30.57,ESE,103,2.0,5.0,79,0.00,,,0.00,meteohub,2013-04-21 11:32:00,
2013-04-21 07:37:00,33.6,27.9,30.58,ESE,116,3.0,5.0,79,0.00,,,0.00,meteohub,2013-04-21 11:37:00,
2013-04-21 07:42:00,33.6,27.9,30.58,ESE,123,3.0,5.0,79,0.00,,,0.00,meteohub,2013-04-21 11:42:00,
2013-04-21 07:47:00,33.8,28.0,30.58,ESE,123,2.0,5.0,79,0.00,,,0.00,meteohub,2013-04-21 11:47:00,
2013-04-21 07:52:00,34.2,28.0,30.58,ESE,122,3.0,4.0,78,0.00,,,0.00,meteohub,2013-04-21 11:52:00,
2013-04-21 07:57:00,34.2,27.7,30.58,ESE,123,4.0,5.0,77,0.00,,,0.00,meteohub,2013-04-21 11:57:00,
2013-04-21 08:02:00,34.2,27.7,30.59,ESE,118,1.0,6.0,77,0.00,,,0.00,meteohub,2013-04-21 12:02:00,
2013-04-21 08:07:00,34.3,27.5,30.59,East,91,4.0,6.0,76,0.00,,,0.00,meteohub,2013-04-21 12:07:00,
2013-04-21 08:12:00,34.3,27.5,30.59,East,96,5.0,7.0,76,0.00,,,0.00,meteohub,2013-04-21 12:12:00,
2013-04-21 08:17:00,34.2,27.3,30.59,ENE,71,4.0,10.0,76,0.00,,,0.00,meteohub,2013-04-21 12:17:00,
2013-04-21 08:22:00,34.2,27.1,30.60,East,90,4.0,10.0,75,0.00,,,0.00,meteohub,2013-04-21 12:22:00,
2013-04-21 08:27:00,34.3,27.3,30.60,East,99,5.0,10.0,75,0.00,,,0.00,meteohub,2013-04-21 12:27:00,
2013-04-21 08:32:00,34.2,26.8,30.60,East,84,11.0,11.0,74,0.00,,,0.00,meteohub,2013-04-21 12:32:00,
2013-04-21 08:37:00,34.3,27.3,30.60,East,89,5.0,11.0,75,0.00,,,0.00,meteohub,2013-04-21 12:37:00,
2013-04-21 08:42:00,34.3,27.0,30.59,ENE,70,11.0,11.0,74,0.00,,,0.00,meteohub,2013-04-21 12:42:00,
2013-04-21 08:47:00,34.3,27.5,30.60,ENE,77,11.0,13.0,76,0.00,,,0.00,meteohub,2013-04-21 12:47:00,
2013-04-21 08:52:00,34.2,25.7,30.60,East,91,6.0,13.0,71,0.00,,,0.00,meteohub,2013-04-21 12:52:00,
2013-04-21 08:57:00,34.3,26.2,30.60,ENE,77,6.0,13.0,72,0.00,,,0.00,meteohub,2013-04-21 12:57:00,
2013-04-21 09:02:00,34.3,25.9,30.61,East,85,5.0,13.0,71,0.00,,,0.00,meteohub,2013-04-21 13:02:00,
2013-04-21 09:07:00,34.3,27.0,30.61,East,87,5.0,12.0,74,0.00,,,0.00,meteohub,2013-04-21 13:07:00,
2013-04-21 09:12:00,34.3,26.2,30.61,East,85,3.0,14.0,72,0.00,,,0.00,meteohub,2013-04-21 13:12:00,
2013-04-21 09:17:00,34.3,26.6,30.61,ENE,57,10.0,14.0,73,0.00,,,0.00,meteohub,2013-04-21 13:17:00,
2013-04-21 09:22:00,34.3,26.2,30.61,East,80,6.0,13.0,72,0.00,,,0.00,meteohub,2013-04-21 13:22:00,
2013-04-21 09:27:00,34.3,26.2,30.61,ENE,64,12.0,13.0,72,0.00,,,0.00,meteohub,2013-04-21 13:27:00,
2013-04-21 09:32:00,34.3,25.9,30.61,NE,51,9.0,13.0,71,0.00,,,0.00,meteohub,2013-04-21 13:32:00,
2013-04-21 09:37:00,34.3,25.9,30.62,ENE,59,6.0,14.0,71,0.00,,,0.00,meteohub,2013-04-21 13:37:00,
2013-04-21 09:42:00,34.5,26.4,30.61,ENE,57,9.0,14.0,72,0.00,,,0.00,meteohub,2013-04-21 13:42:00,
2013-04-21 09:47:00,34.3,25.5,30.62,East,85,5.0,13.0,70,0.00,,,0.00,meteohub,2013-04-21 13:47:00,
2013-04-21 09:52:00,34.5,26.4,30.62,NE,55,12.0,16.0,72,0.00,,,0.00,meteohub,2013-04-21 13:52:00,
2013-04-21 09:57:00,34.5,26.1,30.62,NE,46,10.0,16.0,71,0.00,,,0.00,meteohub,2013-04-21 13:57:00,
2013-04-21 10:02:00,34.5,25.7,30.62,NE,54,13.0,16.0,70,0.00,,,0.00,meteohub,2013-04-21 14:02:00,
2013-04-21 10:07:00,34.5,25.7,30.63,ENE,66,11.0,16.0,70,0.00,,,0.00,meteohub,2013-04-21 14:07:00,
2013-04-21 10:12:00,34.5,26.1,30.62,ENE,66,10.0,15.0,71,0.00,,,0.00,meteohub,2013-04-21 14:12:00,
2013-04-21 10:17:00,34.5,26.4,30.62,ENE,57,11.0,14.0,72,0.00,,,0.00,meteohub,2013-04-21 14:17:00,
2013-04-21 10:22:00,34.3,25.5,30.62,NE,36,12.0,16.0,70,0.00,,,0.00,meteohub,2013-04-21 14:22:00,
2013-04-21 10:27:00,34.5,26.8,30.63,NE,55,11.0,16.0,73,0.00,,,0.00,meteohub,2013-04-21 14:27:00,
2013-04-21 10:32:00,34.5,25.7,30.63,ENE,65,13.0,16.0,70,0.00,,,0.00,meteohub,2013-04-21 14:32:00,
2013-04-21 10:37:00,34.3,25.9,30.63,NE,40,11.0,16.0,71,0.00,,,0.00,meteohub,2013-04-21 14:37:00,
2013-04-21 10:42:00,34.5,26.8,30.63,NE,53,15.0,16.0,73,0.00,,,0.00,meteohub,2013-04-21 14:42:00,
2013-04-21 10:47:00,34.3,25.9,30.63,ENE,58,14.0,15.0,71,0.00,,,0.00,meteohub,2013-04-21 14:47:00,
2013-04-21 10:52:00,34.3,25.9,30.64,ENE,65,10.0,15.0,71,0.00,,,0.00,meteohub,2013-04-21 14:52:00,
2013-04-21 10:57:00,34.3,26.6,30.64,ENE,67,13.0,15.0,73,0.00,,,0.00,meteohub,2013-04-21 14:57:00,
2013-04-21 11:02:00,34.3,25.9,30.64,ENE,72,12.0,15.0,71,0.00,,,0.00,meteohub,2013-04-21 15:02:00,
2013-04-21 11:07:00,34.3,26.6,30.64,NE,53,10.0,15.0,73,0.00,,,0.00,meteohub,2013-04-21 15:07:00,
2013-04-21 11:12:00,34.3,26.2,30.64,ENE,61,13.0,15.0,72,0.00,,,0.00,meteohub,2013-04-21 15:12:00,
2013-04-21 11:17:00,34.5,27.1,30.64,ENE,67,13.0,15.0,74,0.00,,,0.00,meteohub,2013-04-21 15:17:00,
2013-04-21 11:22:00,34.5,26.4,30.63,NE,47,14.0,15.0,72,0.00,,,0.00,meteohub,2013-04-21 15:22:00,
2013-04-21 11:27:00,34.9,27.1,30.63,NE,42,13.0,17.0,73,0.00,,,0.00,meteohub,2013-04-21 15:27:00,
2013-04-21 11:32:00,34.9,28.0,30.63,NE,52,16.0,17.0,76,0.00,,,0.00,meteohub,2013-04-21 15:32:00,
2013-04-21 11:37:00,34.9,27.5,30.63,NE,50,15.0,17.0,74,0.00,,,0.00,meteohub,2013-04-21 15:37:00,
2013-04-21 11:42:00,34.9,27.7,30.63,ENE,70,13.0,19.0,75,0.00,,,0.00,meteohub,2013-04-21 15:42:00,
2013-04-21 11:47:00,34.9,27.1,30.62,ENE,59,13.0,19.0,73,0.00,,,0.00,meteohub,2013-04-21 15:47:00,
2013-04-21 11:52:00,34.9,27.7,30.62,NE,53,14.0,19.0,75,0.00,,,0.00,meteohub,2013-04-21 15:52:00,
2013-04-21 11:57:00,34.9,27.5,30.62,ENE,67,12.0,17.0,74,0.00,,,0.00,meteohub,2013-04-21 15:57:00,
2013-04-21 12:02:00,35.1,27.3,30.62,NE,55,16.0,17.0,73,0.00,,,0.00,meteohub,2013-04-21 16:02:00,
2013-04-21 12:07:00,35.1,27.7,30.62,NE,51,13.0,19.0,74,0.00,,,0.00,meteohub,2013-04-21 16:07:00,
2013-04-21 12:12:00,34.9,27.1,30.62,NE,45,18.0,19.0,73,0.00,,,0.00,meteohub,2013-04-21 16:12:00,
2013-04-21 12:17:00,35.1,28.2,30.62,NE,53,13.0,19.0,76,0.00,,,0.00,meteohub,2013-04-21 16:17:00,
2013-04-21 12:22:00,34.9,27.5,30.62,NE,46,17.0,19.0,74,0.00,,,0.00,meteohub,2013-04-21 16:22:00,
2013-04-21 12:27:00,35.1,27.7,30.62,ENE,57,15.0,20.0,74,0.00,,,0.00,meteohub,2013-04-21 16:27:00,
2013-04-21 12:33:00,34.9,27.5,30.61,ENE,57,17.0,20.0,74,0.00,,,0.00,meteohub,2013-04-21 16:33:00,
2013-04-21 12:38:00,35.1,27.3,30.61,NE,46,13.0,20.0,73,0.00,,,0.00,meteohub,2013-04-21 16:38:00,
2013-04-21 12:43:00,35.1,27.3,30.61,NE,45,13.0,20.0,73,0.00,,,0.00,meteohub,2013-04-21 16:43:00,
2013-04-21 12:48:00,35.1,27.7,30.61,ENE,57,13.0,18.0,74,0.00,,,0.00,meteohub,2013-04-21 16:48:00,
2013-04-21 12:53:00,35.1,27.9,30.61,NE,55,13.0,18.0,75,0.00,,,0.00,meteohub,2013-04-21 16:53:00,
2013-04-21 12:58:00,35.2,27.9,30.61,ENE,62,16.0,18.0,74,0.00,,,0.00,meteohub,2013-04-21 16:58:00,
2013-04-21 13:03:00,35.1,27.9,30.61,ENE,62,17.0,20.0,75,0.00,,,0.00,meteohub,2013-04-21 17:03:00,
2013-04-21 13:08:00,35.1,27.9,30.61,ENE,60,15.0,20.0,75,0.00,,,0.00,meteohub,2013-04-21 17:08:00,
2013-04-21 13:13:00,35.1,27.9,30.60,ENE,62,14.0,18.0,75,0.00,,,0.00,meteohub,2013-04-21 17:13:00,
2013-04-21 13:18:00,35.1,27.3,30.61,ENE,62,15.0,18.0,73,0.00,,,0.00,meteohub,2013-04-21 17:18:00,
2013-04-21 13:23:00,34.7,27.7,30.61,ENE,67,15.0,18.0,75,0.00,,,0.00,meteohub,2013-04-21 17:23:00,
2013-04-21 13:28:00,34.9,27.7,30.60,NE,55,18.0,19.0,75,0.00,,,0.00,meteohub,2013-04-21 17:28:00,
2013-04-21 13:33:00,34.9,27.7,30.60,ENE,66,15.0,19.0,75,0.00,,,0.00,meteohub,2013-04-21 17:33:00,
2013-04-21 13:38:00,34.9,28.8,30.60,East,79,14.0,18.0,78,0.00,,,0.00,meteohub,2013-04-21 17:38:00,
2013-04-21 13:43:00,35.1,28.9,30.60,NE,49,14.0,18.0,78,0.00,,,0.00,meteohub,2013-04-21 17:43:00,
2013-04-21 13:48:00,35.1,28.6,30.60,NE,47,14.0,19.0,77,0.00,,,0.00,meteohub,2013-04-21 17:48:00,
2013-04-21 13:53:00,35.1,28.6,30.60,ENE,59,13.0,19.0,77,0.00,,,0.00,meteohub,2013-04-21 17:53:00,
2013-04-21 13:58:00,35.1,28.9,30.60,ENE,71,13.0,18.0,78,0.00,,,0.00,meteohub,2013-04-21 17:58:00,
2013-04-21 14:03:00,35.2,29.3,30.60,NE,46,13.0,18.0,79,0.00,,,0.00,meteohub,2013-04-21 18:03:00,
2013-04-21 14:08:00,35.2,29.1,30.60,ENE,57,13.0,17.0,78,0.00,,,0.00,meteohub,2013-04-21 18:08:00,
2013-04-21 14:13:00,35.1,28.2,30.59,NE,54,13.0,19.0,76,0.00,,,0.00,meteohub,2013-04-21 18:13:00,
2013-04-21 14:18:00,35.4,29.8,30.59,NE,51,14.0,19.0,80,0.00,,,0.00,meteohub,2013-04-21 18:18:00,
2013-04-21 14:23:00,35.8,30.2,30.59,NE,51,16.0,19.0,80,0.00,,,0.00,meteohub,2013-04-21 18:23:00,
2013-04-21 14:28:00,35.6,29.7,30.59,NE,44,15.0,18.0,79,0.00,,,0.00,meteohub,2013-04-21 18:28:00,
2013-04-21 14:33:00,35.8,29.3,30.59,NE,46,17.0,18.0,77,0.00,,,0.00,meteohub,2013-04-21 18:33:00,
2013-04-21 14:38:00,35.6,29.7,30.58,NE,55,16.0,18.0,79,0.00,,,0.00,meteohub,2013-04-21 18:38:00,
2013-04-21 14:44:00,36.0,30.0,30.58,NE,42,17.0,19.0,79,0.00,,,0.00,meteohub,2013-04-21 18:44:00,
2013-04-21 14:49:00,35.8,28.9,30.58,NE,53,18.0,19.0,76,0.00,,,0.00,meteohub,2013-04-21 18:49:00,
2013-04-21 14:54:00,36.0,29.8,30.58,NE,49,17.0,19.0,78,0.00,,,0.00,meteohub,2013-04-21 18:54:00,
2013-04-21 14:59:00,36.0,30.0,30.58,NE,50,17.0,20.0,79,0.00,,,0.00,meteohub,2013-04-21 18:59:00,
2013-04-21 15:04:00,36.0,29.5,30.58,NE,36,19.0,21.0,77,0.00,,,0.00,meteohub,2013-04-21 19:04:00,
2013-04-21 15:09:00,35.8,28.9,30.57,ENE,60,14.0,21.0,76,0.00,,,0.00,meteohub,2013-04-21 19:09:00,
2013-04-21 15:14:00,36.0,28.8,30.57,ENE,64,14.0,21.0,75,0.00,,,0.00,meteohub,2013-04-21 19:14:00,
2013-04-21 15:19:00,35.8,28.6,30.57,ENE,64,16.0,21.0,75,0.00,,,0.00,meteohub,2013-04-21 19:19:00,
2013-04-21 15:24:00,36.1,30.0,30.57,NE,40,19.0,21.0,78,0.00,,,0.00,meteohub,2013-04-21 19:24:00,
2013-04-21 15:29:00,36.0,28.8,30.56,NE,54,17.0,21.0,75,0.00,,,0.00,meteohub,2013-04-21 19:29:00,
2013-04-21 15:34:00,36.0,28.2,30.56,NE,39,16.0,20.0,73,0.00,,,0.00,meteohub,2013-04-21 19:34:00,
2013-04-21 15:39:00,36.1,27.7,30.56,NE,55,15.0,20.0,71,0.00,,,0.00,meteohub,2013-04-21 19:39:00,
2013-04-21 15:44:00,36.3,27.5,30.56,NE,51,17.0,20.0,70,0.00,,,0.00,meteohub,2013-04-21 19:44:00,
2013-04-21 15:49:00,36.7,29.1,30.56,ENE,60,14.0,20.0,74,0.00,,,0.00,meteohub,2013-04-21 19:49:00,
2013-04-21 15:54:00,36.7,27.1,30.55,ENE,60,17.0,19.0,68,0.00,,,0.00,meteohub,2013-04-21 19:54:00,
2013-04-21 15:59:00,36.7,28.2,30.55,NE,56,15.0,20.0,71,0.00,,,0.00,meteohub,2013-04-21 19:59:00,
2013-04-21 16:04:00,36.5,27.3,30.55,NE,50,18.0,21.0,69,0.00,,,0.00,meteohub,2013-04-21 20:04:00,
2013-04-21 16:09:00,36.7,27.1,30.55,NE,53,18.0,21.0,68,0.00,,,0.00,meteohub,2013-04-21 20:09:00,
2013-04-21 16:14:00,36.7,27.9,30.55,ENE,59,16.0,21.0,70,0.00,,,0.00,meteohub,2013-04-21 20:14:00,
2013-04-21 16:19:00,36.9,28.0,30.54,NE,56,17.0,20.0,70,0.00,,,0.00,meteohub,2013-04-21 20:19:00,
2013-04-21 16:24:00,36.9,28.0,30.54,NE,52,18.0,20.0,70,0.00,,,0.00,meteohub,2013-04-21 20:24:00,
2013-04-21 16:29:00,36.9,28.0,30.54,ENE,57,17.0,21.0,70,0.00,,,0.00,meteohub,2013-04-21 20:29:00,
2013-04-21 16:34:00,37.0,28.6,30.54,NE,54,18.0,21.0,71,0.00,,,0.00,meteohub,2013-04-21 20:34:00,
2013-04-21 16:39:00,37.2,29.1,30.53,ENE,62,19.0,21.0,72,0.00,,,0.00,meteohub,2013-04-21 20:39:00,
2013-04-21 16:44:00,37.4,29.1,30.53,ENE,61,18.0,20.0,72,0.00,,,0.00,meteohub,2013-04-21 20:44:00,
2013-04-21 16:49:00,37.6,28.8,30.53,NE,56,16.0,20.0,70,0.00,,,0.00,meteohub,2013-04-21 20:49:00,
2013-04-21 16:55:00,37.8,29.5,30.53,ENE,67,17.0,20.0,72,0.00,,,0.00,meteohub,2013-04-21 20:55:00,
2013-04-21 17:00:00,37.8,29.5,30.53,ENE,63,16.0,20.0,72,0.00,,,0.00,meteohub,2013-04-21 21:00:00,
2013-04-21 17:05:00,37.8,29.1,30.53,NE,50,18.0,21.0,71,0.00,,,0.00,meteohub,2013-04-21 21:05:00,
2013-04-21 17:10:00,37.9,30.4,30.53,ENE,60,17.0,21.0,74,0.00,,,0.00,meteohub,2013-04-21 21:10:00,
2013-04-21 17:15:00,37.8,29.1,30.53,ENE,59,15.0,21.0,71,0.00,,,0.00,meteohub,2013-04-21 21:15:00,
2013-04-21 17:20:00,37.9,29.3,30.53,ENE,66,22.0,22.0,71,0.00,,,0.00,meteohub,2013-04-21 21:20:00,
2013-04-21 17:25:00,37.8,28.9,30.53,ENE,63,20.0,22.0,70,0.00,,,0.00,meteohub,2013-04-21 21:25:00,
2013-04-21 17:30:00,37.8,28.9,30.53,ENE,62,20.0,22.0,70,0.00,,,0.00,meteohub,2013-04-21 21:30:00,
2013-04-21 17:35:00,37.9,28.8,30.53,ENE,61,19.0,22.0,69,0.00,,,0.00,meteohub,2013-04-21 21:35:00,
2013-04-21 17:40:00,38.1,29.5,30.53,ENE,61,17.0,22.0,71,0.00,,,0.00,meteohub,2013-04-21 21:40:00,
2013-04-21 17:45:00,38.5,29.1,30.52,ENE,65,20.0,22.0,69,0.00,,,0.00,meteohub,2013-04-21 21:45:00,
2013-04-21 17:50:00,38.7,28.9,30.52,NE,47,19.0,23.0,68,0.00,,,0.00,meteohub,2013-04-21 21:50:00,
2013-04-21 17:55:00,38.8,29.8,30.52,ENE,63,19.0,23.0,70,0.00,,,0.00,meteohub,2013-04-21 21:55:00,
2013-04-21 18:00:00,39.0,29.7,30.52,ENE,69,20.0,25.0,69,0.00,,,0.00,meteohub,2013-04-21 22:00:00,
2013-04-21 18:05:00,39.4,30.0,30.52,ENE,73,20.0,25.0,69,0.00,,,0.00,meteohub,2013-04-21 22:05:00,
2013-04-21 18:10:00,39.6,31.6,30.52,ENE,63,18.0,22.0,73,0.00,,,0.00,meteohub,2013-04-21 22:10:00,
2013-04-21 18:15:00,39.6,29.8,30.52,ENE,67,19.0,22.0,68,0.00,,,0.00,meteohub,2013-04-21 22:15:00,
2013-04-21 18:20:00,39.7,31.1,30.52,ENE,60,21.0,22.0,71,0.00,,,0.00,meteohub,2013-04-21 22:20:00,
2013-04-21 18:26:00,40.1,31.5,30.51,ENE,63,20.0,23.0,71,0.00,,,0.00,meteohub,2013-04-21 22:26:00,
2013-04-21 18:31:00,40.3,32.4,30.51,East,81,16.0,23.0,73,0.00,,,0.00,meteohub,2013-04-21 22:31:00,
2013-04-21 18:36:00,40.1,32.9,30.51,ENE,65,17.0,22.0,75,0.00,,,0.00,meteohub,2013-04-21 22:36:00,
2013-04-21 18:41:00,40.1,32.9,30.51,ENE,69,17.0,22.0,75,0.00,,,0.00,meteohub,2013-04-21 22:41:00,
2013-04-21 18:46:00,39.9,30.9,30.51,ENE,76,17.0,22.0,70,0.00,,,0.00,meteohub,2013-04-21 22:46:00,
2013-04-21 18:51:00,39.9,32.0,30.51,ENE,71,17.0,21.0,73,0.00,,,0.00,meteohub,2013-04-21 22:51:00,
2013-04-21 18:56:00,40.5,32.5,30.51,ENE,67,16.0,21.0,73,0.00,,,0.00,meteohub,2013-04-21 22:56:00,
2013-04-21 19:01:00,40.3,32.4,30.51,ENE,78,15.0,23.0,73,0.00,,,0.00,meteohub,2013-04-21 23:01:00,
2013-04-21 19:06:00,40.3,32.4,30.50,ENE,63,21.0,23.0,73,0.00,,,0.00,meteohub,2013-04-21 23:06:00,
2013-04-21 19:11:00,40.5,33.1,30.50,ENE,69,18.0,23.0,75,0.00,,,0.00,meteohub,2013-04-21 23:11:00,
2013-04-21 19:16:00,40.5,32.5,30.50,ENE,74,21.0,22.0,73,0.00,,,0.00,meteohub,2013-04-21 23:16:00,
2013-04-21 19:21:00,40.5,33.4,30.50,ENE,64,21.0,22.0,76,0.00,,,0.00,meteohub,2013-04-21 23:21:00,
2013-04-21 19:27:00,40.5,34.2,30.50,ENE,63,19.0,22.0,78,0.00,,,0.00,meteohub,2013-04-21 23:27:00,
2013-04-21 19:32:00,40.6,34.0,30.50,ENE,63,21.0,22.0,77,0.00,,,0.00,meteohub,2013-04-21 23:32:00,
2013-04-21 19:37:00,40.5,34.2,30.50,ENE,61,18.0,21.0,78,0.00,,,0.00,meteohub,2013-04-21 23:37:00,
2013-04-21 19:42:00,40.5,34.2,30.50,ENE,66,19.0,23.0,78,0.00,,,0.00,meteohub,2013-04-21 23:42:00,
2013-04-21 19:47:00,40.5,33.8,30.50,ENE,69,19.0,23.0,77,0.00,,,0.00,meteohub,2013-04-21 23:47:00,
2013-04-21 19:52:00,40.6,34.0,30.50,ENE,71,20.0,23.0,77,0.00,,,0.00,meteohub,2013-04-21 23:52:00,
2013-04-21 19:57:00,40.8,34.2,30.50,ENE,70,22.0,23.0,77,0.00,,,0.00,meteohub,2013-04-21 23:57:00,
2013-04-21 20:02:00,40.8,34.5,30.51,ENE,78,18.0,24.0,78,0.00,,,0.00,meteohub,2013-04-22 00:02:00,
2013-04-21 20:07:00,40.6,34.0,30.51,ENE,78,23.0,25.0,77,0.00,,,0.00,meteohub,2013-04-22 00:07:00,
2013-04-21 20:12:00,40.6,34.3,30.51,ENE,68,25.0,27.0,78,0.00,,,0.00,meteohub,2013-04-22 00:12:00,
2013-04-21 20:17:00,40.6,34.9,30.51,ENE,68,25.0,27.0,80,0.00,,,0.00,meteohub,2013-04-22 00:17:00,
2013-04-21 20:22:00,40.6,34.9,30.51,ENE,78,23.0,28.0,80,0.00,,,0.00,meteohub,2013-04-22 00:22:00,
2013-04-21 20:27:00,40.6,35.2,30.51,ENE,69,22.0,28.0,81,0.00,,,0.00,meteohub,2013-04-22 00:27:00,
2013-04-21 20:32:00,40.6,36.0,30.51,ENE,66,25.0,28.0,83,0.00,,,0.00,meteohub,2013-04-22 00:32:00,
2013-04-21 20:37:00,40.8,36.7,30.51,ENE,70,23.0,27.0,85,0.00,,,0.00,meteohub,2013-04-22 00:37:00,
2013-04-21 20:42:00,40.6,35.6,30.50,ENE,78,23.0,27.0,82,0.00,,,0.00,meteohub,2013-04-22 00:42:00,
2013-04-21 20:47:00,40.8,35.4,30.50,ENE,71,23.0,27.0,81,0.00,,,0.00,meteohub,2013-04-22 00:47:00,
2013-04-21 20:52:00,40.6,35.2,30.51,ENE,71,23.0,27.0,81,0.00,,,0.00,meteohub,2013-04-22 00:52:00,
2013-04-21 20:57:00,40.8,35.8,30.50,ENE,78,21.0,28.0,82,0.00,,,0.00,meteohub,2013-04-22 00:57:00,
2013-04-21 21:02:00,40.8,35.1,30.51,East,88,21.0,28.0,80,0.00,,,0.00,meteohub,2013-04-22 01:02:00,
2013-04-21 21:07:00,40.8,35.4,30.51,East,88,13.0,28.0,81,0.00,,,0.00,meteohub,2013-04-22 01:07:00,
2013-04-21 21:12:00,40.6,34.9,30.50,East,84,16.0,26.0,80,0.00,,,0.00,meteohub,2013-04-22 01:12:00,
2013-04-21 21:17:00,40.6,34.7,30.51,East,86,16.0,26.0,79,0.00,,,0.00,meteohub,2013-04-22 01:17:00,
2013-04-21 21:22:00,40.6,34.7,30.51,East,85,13.0,22.0,79,0.00,,,0.00,meteohub,2013-04-22 01:22:00,
2013-04-21 21:27:00,40.6,34.7,30.51,East,88,16.0,22.0,79,0.00,,,0.00,meteohub,2013-04-22 01:27:00,
2013-04-21 21:32:00,40.6,34.3,30.51,East,82,14.0,22.0,78,0.00,,,0.00,meteohub,2013-04-22 01:32:00,
2013-04-21 21:37:00,40.6,34.7,30.51,East,80,17.0,22.0,79,0.00,,,0.00,meteohub,2013-04-22 01:37:00,
2013-04-21 21:42:00,40.6,34.7,30.51,East,94,17.0,22.0,79,0.00,,,0.00,meteohub,2013-04-22 01:42:00,
2013-04-21 21:47:00,40.6,35.2,30.51,East,88,14.0,19.0,81,0.00,,,0.00,meteohub,2013-04-22 01:47:00,
2013-04-21 21:52:00,40.6,34.7,30.51,East,92,11.0,19.0,79,0.00,,,0.00,meteohub,2013-04-22 01:52:00,
2013-04-21 21:57:00,40.6,35.2,30.50,East,93,13.0,19.0,81,0.00,,,0.00,meteohub,2013-04-22 01:57:00,
2013-04-21 22:02:00,40.6,35.2,30.50,East,89,12.0,17.0,81,0.00,,,0.00,meteohub,2013-04-22 02:02:00,
2013-04-21 22:07:00,40.5,35.1,30.50,East,93,11.0,16.0,81,0.00,,,0.00,meteohub,2013-04-22 02:07:00,
2013-04-21 22:12:00,40.5,35.4,30.50,East,88,13.0,16.0,82,0.00,,,0.00,meteohub,2013-04-22 02:12:00,
2013-04-21 22:17:00,40.5,35.4,30.51,East,90,10.0,16.0,82,0.00,,,0.00,meteohub,2013-04-22 02:17:00,
2013-04-21 22:22:00,40.3,34.9,30.50,East,94,9.0,15.0,81,0.00,,,0.00,meteohub,2013-04-22 02:22:00,
2013-04-21 22:27:00,40.3,34.9,30.50,East,96,9.0,13.0,81,0.00,,,0.00,meteohub,2013-04-22 02:27:00,
2013-04-21 22:32:00,40.3,34.9,30.50,East,83,11.0,13.0,81,0.00,,,0.00,meteohub,2013-04-22 02:32:00,
2013-04-21 22:37:00,40.1,34.7,30.50,East,86,8.0,12.0,81,0.00,,,0.00,meteohub,2013-04-22 02:37:00,
2013-04-21 22:42:00,40.1,34.7,30.50,East,90,10.0,12.0,81,0.00,,,0.00,meteohub,2013-04-22 02:42:00,
2013-04-21 22:47:00,40.1,34.7,30.50,East,92,10.0,12.0,81,0.00,,,0.00,meteohub,2013-04-22 02:47:00,
2013-04-21 22:52:00,40.1,34.7,30.50,East,96,9.0,13.0,81,0.00,,,0.00,meteohub,2013-04-22 02:52:00,
2013-04-21 22:57:00,40.1,35.1,30.49,East,95,6.0,13.0,82,0.00,,,0.00,meteohub,2013-04-22 02:57:00,
2013-04-21 23:02:00,39.9,34.5,30.49,East,88,6.0,13.0,81,0.00,,,0.00,meteohub,2013-04-22 03:02:00,
2013-04-21 23:07:00,39.9,34.5,30.49,ESE,102,10.0,11.0,81,0.00,,,0.00,meteohub,2013-04-22 03:07:00,
2013-04-21 23:12:00,39.9,34.5,30.49,East,88,9.0,11.0,81,0.00,,,0.00,meteohub,2013-04-22 03:12:00,
2013-04-21 23:17:00,39.9,34.5,30.48,East,85,6.0,11.0,81,0.00,,,0.00,meteohub,2013-04-22 03:17:00,
2013-04-21 23:22:00,39.9,34.9,30.48,East,94,7.0,11.0,82,0.00,,,0.00,meteohub,2013-04-22 03:22:00,
2013-04-21 23:27:00,39.9,34.3,30.48,East,90,7.0,11.0,80,0.00,,,0.00,meteohub,2013-04-22 03:27:00,
2013-04-21 23:32:00,39.9,34.3,30.48,East,92,7.0,11.0,80,0.00,,,0.00,meteohub,2013-04-22 03:32:00,
2013-04-21 23:37:00,39.9,34.3,30.48,East,91,7.0,10.0,80,0.00,,,0.00,meteohub,2013-04-22 03:37:00,
2013-04-21 23:42:00,40.1,34.7,30.48,East,98,5.0,10.0,81,0.00,,,0.00,meteohub,2013-04-22 03:42:00,
2013-04-21 23:47:00,39.9,34.3,30.48,East,101,4.0,10.0,80,0.00,,,0.00,meteohub,2013-04-22 03:47:00,
2013-04-21 23:52:00,39.7,34.2,30.48,ESE,103,3.0,10.0,80,0.00,,,0.00,meteohub,2013-04-22 03:52:00,
2013-04-21 23:57:00,39.6,34.0,30.48,ESE,104,1.0,7.0,80,0.00,,,0.00,meteohub,2013-04-22 03:57:00,